Terminal Aerodrome Forecast
Issued by NWS Omaha/Valley, NE

Home | Current Version | Previous Version | Graphics & Text | Print | Product List | Glossary On
Versions: 1 2 3 4 5 6 7 8 9 10 11 12 13 14 15 16 17 18 19 20 21 22 23 24 25 26 27 28 29 30
000
FTUS43 KOAX 070520
TAFOFK
TAF
KOFK 070520Z 0706/0806 VRB03KT P6SM SCT150
     FM071500 17007KT P6SM SCT080 BKN150 PROB30 0720/0723 -TSRA
      BKN050CB
     FM080000 02005KT P6SM BKN250=

USA.gov is the U.S. government's official web portal to all federal, state and local government web resources and services.